createdAt,value
2023-03-12T00:01:30.309Z,99445.88
2023-03-12T00:04:03.111Z,99444.00
2023-03-12T00:06:32.696Z,99446.69
2023-03-12T00:09:03.910Z,99438.94
2023-03-12T00:11:33.038Z,99441.34
2023-03-12T00:14:02.333Z,99438.81
2023-03-12T00:16:31.219Z,99440.50
2023-03-12T00:19:02.294Z,99433.38
2023-03-12T00:21:31.049Z,99431.63
2023-03-12T00:24:00.326Z,99432.47
2023-03-12T00:26:29.351Z,99418.75
2023-03-12T00:28:58.549Z,99420.69
2023-03-12T00:31:31.911Z,99419.81
2023-03-12T00:34:03.864Z,99413.50
2023-03-12T00:36:34.334Z,99408.53
2023-03-12T00:39:04.083Z,99410.28
2023-03-12T00:41:32.935Z,99409.44
2023-03-12T00:44:02.195Z,99412.22
2023-03-12T00:46:31.240Z,99400.13
2023-03-12T00:49:01.691Z,99412.94
2023-03-12T00:51:30.532Z,99402.38
2023-03-12T00:53:59.702Z,99405.03
2023-03-12T00:56:28.514Z,99406.22
2023-03-12T00:58:58.190Z,99409.69
2023-03-12T01:01:27.691Z,99401.28
2023-03-12T01:03:58.370Z,99401.16
2023-03-12T01:06:28.617Z,99399.63
2023-03-12T01:08:57.893Z,99407.44
2023-03-12T01:11:26.907Z,99398.69
2023-03-12T01:13:55.994Z,99406.34
2023-03-12T01:16:28.258Z,99401.28
2023-03-12T01:18:58.395Z,99402.06
2023-03-12T01:21:31.055Z,99395.41
2023-03-12T01:24:00.266Z,99390.22
2023-03-12T01:26:29.463Z,99389.53
2023-03-12T01:28:58.533Z,99386.75
2023-03-12T01:31:27.561Z,99385.38
2023-03-12T01:33:56.750Z,99381.75
2023-03-12T01:36:29.853Z,99383.28
2023-03-12T01:39:00.689Z,99376.16
2023-03-12T01:41:33.173Z,99370.31
2023-03-12T01:44:04.658Z,99367.34
2023-03-12T01:46:36.503Z,99371.53
2023-03-12T01:49:15.480Z,99369.00
2023-03-12T01:51:51.160Z,99372.41
2023-03-12T01:54:26.933Z,99369.00
2023-03-12T01:56:58.167Z,99369.66
2023-03-12T01:59:34.051Z,99366.66
2023-03-12T02:02:04.902Z,99365.75
2023-03-12T02:04:35.813Z,99365.53
2023-03-12T02:07:10.514Z,99380.88
2023-03-12T02:09:44.651Z,99379.31
2023-03-12T02:12:14.487Z,99380.81
2023-03-12T02:14:44.446Z,99379.97
2023-03-12T02:17:13.734Z,99381.66
2023-03-12T02:19:56.368Z,99377.38
2023-03-12T02:22:27.081Z,99385.44
2023-03-12T02:25:05.463Z,99381.03
2023-03-12T02:27:38.992Z,99378.69
2023-03-12T02:30:15.189Z,99383.03
2023-03-12T02:32:47.765Z,99378.50
2023-03-12T02:35:18.632Z,99374.94
2023-03-12T02:37:53.800Z,99380.75
2023-03-12T02:40:30.687Z,99378.22
2023-03-12T02:43:03.399Z,99379.13
2023-03-12T02:45:34.163Z,99384.25
2023-03-12T02:48:03.865Z,99382.78
2023-03-12T02:50:32.945Z,99388.22
2023-03-12T02:53:02.104Z,99383.88
2023-03-12T02:55:31.241Z,99388.34
2023-03-12T02:58:01.568Z,99373.81
2023-03-12T03:00:32.878Z,99370.28
2023-03-12T03:03:02.552Z,99373.81
2023-03-12T03:05:31.830Z,99375.34
2023-03-12T03:08:00.844Z,99387.25
2023-03-12T03:10:30.552Z,99395.78
2023-03-12T03:13:01.434Z,99388.28
2023-03-12T03:15:30.655Z,99395.84
2023-03-12T03:17:59.767Z,99395.78
2023-03-12T03:20:28.826Z,99397.75
2023-03-12T03:22:57.850Z,99396.06
2023-03-12T03:25:27.207Z,99414.81
2023-03-12T03:27:56.287Z,99418.13
2023-03-12T03:30:26.736Z,99424.78
2023-03-12T03:32:56.377Z,99428.03
2023-03-12T03:35:26.032Z,99425.75
2023-03-12T03:37:55.003Z,99432.06
2023-03-12T03:40:24.106Z,99439.22
2023-03-12T03:42:52.960Z,99446.91
2023-03-12T03:45:22.214Z,99451.97
2023-03-12T03:47:52.674Z,99442.44
2023-03-12T03:50:22.060Z,99447.44
2023-03-12T03:52:51.754Z,99434.72
2023-03-12T03:55:20.954Z,99444.03
2023-03-12T03:57:50.156Z,99443.41
2023-03-12T04:00:20.381Z,99450.41
2023-03-12T04:02:52.325Z,99449.22
2023-03-12T04:05:21.758Z,99456.72
2023-03-12T04:07:54.584Z,99455.03
2023-03-12T04:10:26.597Z,99458.50
2023-03-12T04:12:55.384Z,99456.78
2023-03-12T04:15:25.218Z,99460.09
2023-03-12T04:17:55.379Z,99459.53
2023-03-12T04:20:25.153Z,99454.06
2023-03-12T04:22:54.033Z,99461.91
2023-03-12T04:25:23.163Z,99449.72
2023-03-12T04:27:52.081Z,99459.69
2023-03-12T04:30:21.734Z,99460.94
2023-03-12T04:32:50.802Z,99459.97
2023-03-12T04:35:21.828Z,99466.06
2023-03-12T04:37:50.674Z,99457.09
2023-03-12T04:40:20.549Z,99465.78
2023-03-12T04:42:49.853Z,99458.75
2023-03-12T04:45:19.163Z,99467.97
2023-03-12T04:47:48.996Z,99455.78
2023-03-12T04:50:20.275Z,99459.41
2023-03-12T04:52:49.124Z,99458.06
2023-03-12T04:55:18.680Z,99459.00
2023-03-12T04:57:47.535Z,99451.97
2023-03-12T05:00:17.685Z,99459.13
2023-03-12T05:02:47.876Z,99456.34
2023-03-12T05:05:17.115Z,99463.06
2023-03-12T05:07:47.478Z,99467.28
2023-03-12T05:10:16.858Z,99466.53
2023-03-12T05:12:45.876Z,99461.22
2023-03-12T05:15:17.788Z,99466.63
2023-03-12T05:17:46.714Z,99470.19
2023-03-12T05:20:17.704Z,99470.25
2023-03-12T05:22:49.681Z,99476.09
2023-03-12T05:25:19.306Z,99470.06
2023-03-12T05:27:48.361Z,99470.69
2023-03-12T05:30:18.136Z,99470.63
2023-03-12T05:32:47.048Z,99480.38
2023-03-12T05:35:17.004Z,99476.84
2023-03-12T05:37:48.976Z,99477.72
2023-03-12T05:40:18.357Z,99488.00
2023-03-12T05:42:47.262Z,99493.03
2023-03-12T05:45:16.494Z,99493.53
2023-03-12T05:47:49.171Z,99494.59
2023-03-12T05:50:19.413Z,99494.78
2023-03-12T05:52:49.759Z,99492.25
2023-03-12T05:55:19.561Z,99486.81
2023-03-12T05:57:49.106Z,99501.44
2023-03-12T06:00:19.801Z,99494.34
2023-03-12T06:02:55.989Z,99504.66
2023-03-12T06:05:25.353Z,99508.25
2023-03-12T06:07:55.580Z,99500.91
2023-03-12T06:10:24.777Z,99504.41
2023-03-12T06:12:53.631Z,99515.03
2023-03-12T06:15:23.099Z,99518.50
2023-03-12T06:17:52.314Z,99524.16
2023-03-12T06:20:21.751Z,99534.75
2023-03-12T06:22:50.804Z,99527.66
2023-03-12T06:25:21.348Z,99533.00
2023-03-12T06:27:50.147Z,99530.34
2023-03-12T06:30:19.602Z,99528.44
2023-03-12T06:32:48.667Z,99527.22
2023-03-12T06:35:17.959Z,99535.88
2023-03-12T06:37:46.744Z,99542.47
2023-03-12T06:40:15.853Z,99536.63
2023-03-12T06:42:46.006Z,99539.84
2023-03-12T06:45:15.057Z,99542.56
2023-03-12T06:47:43.921Z,99544.19
2023-03-12T06:50:13.241Z,99552.19
2023-03-12T06:52:42.058Z,99555.00
2023-03-12T06:55:11.521Z,99558.38
2023-03-12T06:57:40.400Z,99546.88
2023-03-12T07:00:13.204Z,99570.06
2023-03-12T07:02:42.147Z,99562.63
2023-03-12T07:05:11.647Z,99567.69
2023-03-12T07:07:40.498Z,99575.34
2023-03-12T07:10:12.220Z,99582.63
2023-03-12T07:12:41.060Z,99586.56
2023-03-12T07:15:12.752Z,99583.47
2023-03-12T07:17:41.969Z,99579.59
2023-03-12T07:20:13.298Z,99589.78
2023-03-12T07:22:42.278Z,99587.59
2023-03-12T07:25:12.108Z,99586.53
2023-03-12T07:27:40.951Z,99598.38
2023-03-12T07:30:13.462Z,99588.78
2023-03-12T07:32:42.852Z,99584.50
2023-03-12T07:35:12.210Z,99582.97
2023-03-12T07:37:41.212Z,99597.03
2023-03-12T07:40:12.433Z,99603.31
2023-03-12T07:42:41.193Z,99612.41
2023-03-12T07:45:12.617Z,99600.44
2023-03-12T07:47:41.517Z,99610.78
2023-03-12T07:50:12.643Z,99618.78
2023-03-12T07:52:41.685Z,99611.78
2023-03-12T07:55:12.327Z,99627.44
2023-03-12T07:57:41.453Z,99626.81
2023-03-12T08:00:14.008Z,99621.91
2023-03-12T08:02:43.030Z,99641.19
2023-03-12T08:05:12.463Z,99630.03
2023-03-12T08:07:41.486Z,99639.66
2023-03-12T08:10:12.824Z,99637.97
2023-03-12T08:12:41.606Z,99644.31
2023-03-12T08:15:13.548Z,99642.28
2023-03-12T08:17:42.844Z,99647.59
2023-03-12T08:20:13.759Z,99649.53
2023-03-12T08:22:42.639Z,99662.31
2023-03-12T08:25:12.827Z,99648.78
2023-03-12T08:27:41.701Z,99658.31
2023-03-12T08:30:14.055Z,99660.91
2023-03-12T08:32:42.893Z,99661.38
2023-03-12T08:35:12.362Z,99671.34
2023-03-12T08:37:41.547Z,99665.59
2023-03-12T08:40:13.422Z,99667.03
2023-03-12T08:42:44.047Z,99668.28
2023-03-12T08:45:15.881Z,99672.25
2023-03-12T08:47:45.117Z,99674.16
2023-03-12T08:50:16.894Z,99677.94
2023-03-12T08:52:45.818Z,99678.34
2023-03-12T08:55:15.512Z,99688.94
2023-03-12T08:57:44.414Z,99685.78
2023-03-12T09:00:18.060Z,99680.38
2023-03-12T09:02:49.979Z,99683.06
2023-03-12T09:05:19.411Z,99682.44
2023-03-12T09:07:50.087Z,99682.59
2023-03-12T09:10:19.448Z,99694.06
2023-03-12T09:12:48.320Z,99689.69
2023-03-12T09:15:19.310Z,99699.31
2023-03-12T09:17:48.560Z,99699.16
2023-03-12T09:20:17.682Z,99702.31
2023-03-12T09:22:46.848Z,99701.16
2023-03-12T09:25:17.134Z,99710.81
2023-03-12T09:27:48.576Z,99709.72
2023-03-12T09:30:22.070Z,99708.97
2023-03-12T09:32:50.902Z,99700.84
2023-03-12T09:35:20.137Z,99708.53
2023-03-12T09:37:51.464Z,99718.56
2023-03-12T09:40:25.060Z,99726.44
2023-03-12T09:42:58.995Z,99723.59
2023-03-12T09:45:37.167Z,99722.84
2023-03-12T09:48:13.402Z,99719.78
2023-03-12T09:50:46.850Z,99733.88
2023-03-12T09:53:29.419Z,99732.94
2023-03-12T09:56:03.698Z,99730.91
2023-03-12T09:58:36.134Z,99723.25
2023-03-12T10:01:31.700Z,99734.44
2023-03-12T10:04:37.793Z,99736.22
2023-03-12T10:07:21.882Z,99750.78
2023-03-12T10:10:14.438Z,99743.78
2023-03-12T10:13:03.638Z,99751.56
2023-03-12T10:15:45.930Z,99750.03
2023-03-12T10:18:36.876Z,99734.44
2023-03-12T10:21:21.474Z,99756.31
2023-03-12T10:24:16.678Z,99741.41
2023-03-12T10:26:51.589Z,99741.25
2023-03-12T10:29:25.399Z,99759.75
2023-03-12T10:32:01.821Z,99756.94
2023-03-12T10:34:41.318Z,99767.94
2023-03-12T10:37:22.262Z,99763.69
2023-03-12T10:39:52.738Z,99775.72
2023-03-12T10:42:24.014Z,99770.53
2023-03-12T10:44:57.546Z,99767.88
2023-03-12T10:47:36.797Z,99769.09
2023-03-12T10:50:18.238Z,99766.91
2023-03-12T10:52:49.378Z,99775.50
2023-03-12T10:55:26.361Z,99779.34
2023-03-12T10:57:55.484Z,99781.38
2023-03-12T11:00:27.920Z,99777.63
2023-03-12T11:03:04.418Z,99785.66
2023-03-12T11:05:37.960Z,99790.53
2023-03-12T11:08:24.227Z,99795.13
2023-03-12T11:10:53.384Z,99783.09
2023-03-12T11:13:32.274Z,99787.97
2023-03-12T11:16:04.267Z,99799.56
2023-03-12T11:18:36.197Z,99797.94
2023-03-12T11:21:20.065Z,99801.50
2023-03-12T11:24:09.975Z,99803.09
2023-03-12T11:26:50.674Z,99813.84
2023-03-12T11:29:28.138Z,99806.56
2023-03-12T11:32:18.551Z,99800.63
2023-03-12T11:34:49.680Z,99810.56
2023-03-12T11:37:32.585Z,99805.50
2023-03-12T11:40:22.136Z,99805.22
2023-03-12T11:43:29.258Z,99812.31
2023-03-12T11:46:24.074Z,99801.59
2023-03-12T11:49:20.310Z,99805.50
2023-03-12T11:51:58.337Z,99807.03
2023-03-12T11:55:15.826Z,99812.66
2023-03-12T11:58:11.184Z,99807.47
2023-03-12T12:00:52.067Z,99812.00
2023-03-12T12:04:11.051Z,99816.78
2023-03-12T12:06:59.149Z,99816.19
2023-03-12T12:09:43.920Z,99830.47
2023-03-12T12:12:53.009Z,99810.28
2023-03-12T12:15:37.508Z,99807.31
2023-03-12T12:18:32.259Z,99817.97
2023-03-12T12:21:09.957Z,99817.41
2023-03-12T12:23:54.762Z,99823.44
2023-03-12T12:26:36.776Z,99848.81
2023-03-12T12:29:31.755Z,99831.31
2023-03-12T12:32:03.408Z,99821.72
2023-03-12T12:35:05.922Z,99822.00
2023-03-12T12:37:55.434Z,99837.38
2023-03-12T12:40:32.306Z,99845.69
2023-03-12T12:43:19.889Z,99854.03
2023-03-12T12:45:53.137Z,99853.94
2023-03-12T12:48:28.127Z,99852.25
2023-03-12T12:51:00.154Z,99850.25
2023-03-12T12:53:42.109Z,99863.38
2023-03-12T12:56:22.612Z,99876.75
2023-03-12T12:59:25.192Z,99877.09
2023-03-12T13:01:57.138Z,99880.44
2023-03-12T13:04:31.793Z,99884.50
2023-03-12T13:07:27.607Z,99880.63
2023-03-12T13:09:59.160Z,99888.00
2023-03-12T13:12:34.820Z,99878.78
2023-03-12T13:15:40.872Z,99876.59
2023-03-12T13:18:22.967Z,99885.66
2023-03-12T13:21:22.365Z,99892.41
2023-03-12T13:24:07.515Z,99884.81
2023-03-12T13:26:54.757Z,99893.88
2023-03-12T13:29:39.789Z,99897.00
2023-03-12T13:32:55.101Z,99896.16
2023-03-12T13:35:37.309Z,99898.53
2023-03-12T13:38:12.850Z,99901.13
2023-03-12T13:41:03.141Z,99895.41
2023-03-12T13:43:54.629Z,99896.50
2023-03-12T13:46:37.857Z,99911.56
2023-03-12T13:49:18.907Z,99907.19
2023-03-12T13:52:02.287Z,99904.72
2023-03-12T13:54:41.670Z,99906.50
2023-03-12T13:57:27.410Z,99914.00
2023-03-12T13:59:59.709Z,99917.53
2023-03-12T14:02:34.593Z,99903.41
2023-03-12T14:05:09.600Z,99914.84
2023-03-12T14:08:17.301Z,99913.06
2023-03-12T14:11:09.444Z,99912.81
2023-03-12T14:14:09.184Z,99916.78
2023-03-12T14:16:45.967Z,99916.69
2023-03-12T14:19:17.425Z,99910.13
2023-03-12T14:21:52.226Z,99916.28
2023-03-12T14:24:28.832Z,99926.47
2023-03-12T14:26:59.339Z,99930.84
2023-03-12T14:29:36.747Z,99932.50
2023-03-12T14:32:15.266Z,99932.28
2023-03-12T14:34:50.497Z,99930.41
2023-03-12T14:37:26.262Z,99943.09
2023-03-12T14:40:01.632Z,99932.22
2023-03-12T14:42:34.650Z,99937.38
2023-03-12T14:45:12.955Z,99933.97
2023-03-12T14:47:42.280Z,99936.69
2023-03-12T14:50:19.860Z,99934.91
2023-03-12T14:52:50.182Z,99939.03
2023-03-12T14:55:24.364Z,99934.31
2023-03-12T14:58:06.811Z,99931.72
2023-03-12T15:00:36.043Z,99940.44
2023-03-12T15:03:16.005Z,99941.19
2023-03-12T15:05:48.288Z,99943.38
2023-03-12T15:08:19.828Z,99944.44
2023-03-12T15:10:52.409Z,99945.31
2023-03-12T15:13:24.419Z,99949.34
2023-03-12T15:15:56.574Z,99953.72
2023-03-12T15:18:30.509Z,99957.09
2023-03-12T15:21:03.639Z,99955.91
2023-03-12T15:23:38.881Z,99951.53
2023-03-12T15:26:27.339Z,99960.84
2023-03-12T15:28:58.731Z,99960.66
2023-03-12T15:31:28.688Z,99953.63
2023-03-12T15:34:04.491Z,99957.72
2023-03-12T15:36:35.936Z,99961.19
2023-03-12T15:39:26.492Z,99968.09
2023-03-12T15:42:01.218Z,99964.94
2023-03-12T15:44:43.804Z,99967.25
2023-03-12T15:47:16.609Z,99971.06
2023-03-12T15:49:52.994Z,99970.94
2023-03-12T15:52:32.236Z,99980.38
2023-03-12T15:55:07.126Z,99983.13
2023-03-12T15:57:46.444Z,99973.44
2023-03-12T16:00:24.761Z,99981.69
2023-03-12T16:02:58.048Z,99987.59
2023-03-12T16:05:31.843Z,99982.22
2023-03-12T16:08:11.850Z,99975.53
2023-03-12T16:10:42.608Z,99981.44
2023-03-12T16:13:16.960Z,99978.13
2023-03-12T16:15:47.754Z,99985.44
2023-03-12T16:18:19.886Z,99988.56
2023-03-12T16:20:50.911Z,99984.59
2023-03-12T16:23:21.171Z,99985.06
2023-03-12T16:25:55.783Z,99998.03
2023-03-12T16:28:26.018Z,99987.59
2023-03-12T16:30:55.731Z,99995.31
2023-03-12T16:33:26.088Z,99995.16
2023-03-12T16:35:55.858Z,100000.31
2023-03-12T16:38:25.160Z,100007.22
2023-03-12T16:40:55.835Z,100003.13
2023-03-12T16:43:29.197Z,100000.84
2023-03-12T16:45:58.236Z,100011.34
2023-03-12T16:48:27.491Z,100017.81
2023-03-12T16:50:58.939Z,100013.09
2023-03-12T16:53:28.688Z,100017.53
2023-03-12T16:56:02.581Z,100023.38
2023-03-12T16:58:32.217Z,100026.19
2023-03-12T17:01:01.224Z,100020.13
2023-03-12T17:03:36.472Z,100028.03
2023-03-12T17:06:20.561Z,100030.91
2023-03-12T17:08:51.170Z,100029.53
2023-03-12T17:11:24.666Z,100038.41
2023-03-12T17:13:58.624Z,100028.97
2023-03-12T17:16:28.082Z,100026.59
2023-03-12T17:18:57.993Z,100033.78
2023-03-12T17:21:26.902Z,100033.91
2023-03-12T17:23:55.980Z,100034.88
2023-03-12T17:26:26.210Z,100038.69
2023-03-12T17:28:55.279Z,100044.09
2023-03-12T17:31:26.739Z,100047.78
2023-03-12T17:33:55.916Z,100045.44
2023-03-12T17:36:24.747Z,100047.56
2023-03-12T17:38:53.792Z,100045.94
2023-03-12T17:41:26.789Z,100045.16
2023-03-12T17:44:01.604Z,100042.50
2023-03-12T17:46:32.229Z,100046.06
2023-03-12T17:49:01.736Z,100045.16
2023-03-12T17:51:30.535Z,100049.53
2023-03-12T17:53:59.665Z,100053.88
2023-03-12T17:56:28.540Z,100038.25
2023-03-12T17:58:59.046Z,100047.13
2023-03-12T18:01:27.969Z,100047.97
2023-03-12T18:03:57.055Z,100056.59
2023-03-12T18:06:26.545Z,100060.13
2023-03-12T18:08:55.643Z,100059.38
2023-03-12T18:11:24.480Z,100067.22
2023-03-12T18:13:53.632Z,100076.00
2023-03-12T18:16:24.105Z,100070.94
2023-03-12T18:18:53.258Z,100073.69
2023-03-12T18:21:22.096Z,100075.66
2023-03-12T18:23:51.213Z,100076.53
2023-03-12T18:26:20.106Z,100082.63
2023-03-12T18:28:50.487Z,100082.94
2023-03-12T18:31:19.357Z,100082.16
2023-03-12T18:33:49.884Z,100085.84
2023-03-12T18:36:18.698Z,100096.25
2023-03-12T18:38:48.032Z,100103.38
2023-03-12T18:41:17.054Z,100096.53
2023-03-12T18:43:46.168Z,100100.84
2023-03-12T18:46:15.124Z,100096.81
2023-03-12T18:48:44.613Z,100085.72
2023-03-12T18:51:14.818Z,100096.19
2023-03-12T18:53:46.061Z,100089.44
2023-03-12T18:56:15.737Z,100088.72
2023-03-12T18:58:44.824Z,100086.22
2023-03-12T19:01:14.033Z,100082.22
2023-03-12T19:03:43.170Z,100073.69
2023-03-12T19:06:16.661Z,100076.41
2023-03-12T19:08:45.802Z,100074.78
2023-03-12T19:11:16.885Z,100076.41
2023-03-12T19:13:49.508Z,100065.31
2023-03-12T19:16:21.945Z,100073.22
2023-03-12T19:18:52.079Z,100069.84
2023-03-12T19:21:22.688Z,100063.84
2023-03-12T19:23:52.483Z,100062.22
2023-03-12T19:26:21.412Z,100067.31
2023-03-12T19:28:50.492Z,100078.47
2023-03-12T19:31:19.428Z,100080.19
2023-03-12T19:33:48.608Z,100092.25
2023-03-12T19:36:17.497Z,100092.97
2023-03-12T19:38:48.125Z,100090.25
2023-03-12T19:41:17.467Z,100093.56
2023-03-12T19:43:47.133Z,100096.03
2023-03-12T19:46:16.026Z,100102.13
2023-03-12T19:48:45.118Z,100101.28
2023-03-12T19:51:14.053Z,100103.94
2023-03-12T19:53:43.734Z,100102.28
2023-03-12T19:56:14.086Z,100100.47
2023-03-12T19:58:43.263Z,100107.31
2023-03-12T20:01:12.102Z,100109.22
2023-03-12T20:03:43.870Z,100104.94
2023-03-12T20:06:14.069Z,100110.97
2023-03-12T20:08:44.581Z,100107.66
2023-03-12T20:11:14.937Z,100106.81
2023-03-12T20:13:44.133Z,100110.47
2023-03-12T20:16:13.943Z,100114.84
2023-03-12T20:18:43.059Z,100113.41
2023-03-12T20:21:12.296Z,100114.47
2023-03-12T20:23:41.481Z,100099.09
2023-03-12T20:26:10.516Z,100099.31
2023-03-12T20:28:40.984Z,100095.28
2023-03-12T20:31:11.312Z,100098.06
2023-03-12T20:33:40.740Z,100089.53
2023-03-12T20:36:12.725Z,100091.47
2023-03-12T20:38:42.392Z,100081.25
2023-03-12T20:41:14.586Z,100074.44
2023-03-12T20:43:46.332Z,100076.47
2023-03-12T20:46:15.220Z,100070.63
2023-03-12T20:48:44.338Z,100079.31
2023-03-12T20:51:13.140Z,100081.91
2023-03-12T20:53:42.695Z,100070.06
2023-03-12T20:56:12.397Z,100076.34
2023-03-12T20:58:41.525Z,100078.19
2023-03-12T21:01:12.187Z,100075.66
2023-03-12T21:03:41.291Z,100071.38
2023-03-12T21:06:10.099Z,100064.63
2023-03-12T21:08:39.184Z,100069.91
2023-03-12T21:11:09.232Z,100060.38
2023-03-12T21:13:38.317Z,100056.94
2023-03-12T21:16:08.712Z,100069.13
2023-03-12T21:18:39.303Z,100057.81
2023-03-12T21:21:09.958Z,100041.47
2023-03-12T21:23:39.608Z,100043.34
2023-03-12T21:26:09.791Z,100043.41
2023-03-12T21:28:39.004Z,100049.63
2023-03-12T21:31:10.674Z,100044.44
2023-03-12T21:33:41.367Z,100050.47
2023-03-12T21:36:13.767Z,100046.06
2023-03-12T21:38:43.873Z,100045.22
2023-03-12T21:41:15.526Z,100042.56
2023-03-12T21:43:46.743Z,100049.47
2023-03-12T21:46:18.870Z,100045.16
2023-03-12T21:48:49.930Z,100041.69
2023-03-12T21:51:19.705Z,100045.94
2023-03-12T21:53:48.795Z,100047.66
2023-03-12T21:56:17.948Z,100044.94
2023-03-12T21:58:47.013Z,100041.59
2023-03-12T22:01:19.103Z,100041.47
2023-03-12T22:03:49.672Z,100032.97
2023-03-12T22:06:18.820Z,100038.84
2023-03-12T22:08:49.238Z,100033.03
2023-03-12T22:11:18.378Z,100033.09
2023-03-12T22:13:47.533Z,100038.94
2023-03-12T22:16:17.238Z,100031.06
2023-03-12T22:18:47.697Z,100032.69
2023-03-12T22:21:20.902Z,100028.34
2023-03-12T22:23:52.472Z,100019.91
2023-03-12T22:26:22.605Z,100020.63
2023-03-12T22:28:53.569Z,100035.28
2023-03-12T22:31:24.721Z,100022.06
2023-03-12T22:33:54.334Z,100026.31
2023-03-12T22:36:25.020Z,100022.53
2023-03-12T22:38:54.586Z,100019.81
2023-03-12T22:41:25.734Z,100017.16
2023-03-12T22:43:57.717Z,100024.94
2023-03-12T22:46:27.765Z,100013.59
2023-03-12T22:48:59.597Z,100018.59
2023-03-12T22:51:32.505Z,100013.31
2023-03-12T22:54:01.780Z,100010.88
2023-03-12T22:56:31.078Z,100002.06
2023-03-12T22:59:00.227Z,100000.19
2023-03-12T23:01:29.060Z,100003.75
2023-03-12T23:03:59.776Z,100005.25
2023-03-12T23:06:30.548Z,100000.94
2023-03-12T23:09:00.642Z,99988.66
2023-03-12T23:11:30.994Z,99986.13
2023-03-12T23:14:00.158Z,99981.47
2023-03-12T23:16:29.091Z,99982.00
2023-03-12T23:18:58.139Z,99979.03
2023-03-12T23:21:27.232Z,99979.81
2023-03-12T23:23:57.634Z,99982.41
2023-03-12T23:26:28.923Z,99982.22
2023-03-12T23:28:59.931Z,99985.47
2023-03-12T23:31:30.655Z,99977.63
2023-03-12T23:33:59.769Z,99977.63
2023-03-12T23:36:28.844Z,99965.47
2023-03-12T23:38:59.350Z,99945.47
2023-03-12T23:41:30.403Z,99946.16
2023-03-12T23:44:00.444Z,99957.16
2023-03-12T23:46:29.606Z,99966.59
2023-03-12T23:48:59.380Z,99969.84
2023-03-12T23:51:31.201Z,99961.22
2023-03-12T23:54:05.293Z,99954.31
2023-03-12T23:56:37.758Z,99957.78
2023-03-12T23:59:10.030Z,99955.13
